sensor_id;sensor_type;location;lat;lon;timestamp;P1;durP1;ratioP1;P2;durP2;ratioP2
30647;SDS011;17683;53.360;9.736;2023-09-30T00:00:43;9.23;;;3.28;;
30647;SDS011;17683;53.360;9.736;2023-09-30T00:03:09;12.88;;;4.15;;
30647;SDS011;17683;53.360;9.736;2023-09-30T00:05:36;12.07;;;4.18;;
30647;SDS011;17683;53.360;9.736;2023-09-30T00:08:02;8.60;;;3.90;;
30647;SDS011;17683;53.360;9.736;2023-09-30T00:10:29;12.68;;;3.42;;
30647;SDS011;17683;53.360;9.736;2023-09-30T00:12:57;8.18;;;3.67;;
30647;SDS011;17683;53.360;9.736;2023-09-30T00:15:24;11.35;;;3.83;;
30647;SDS011;17683;53.360;9.736;2023-09-30T00:17:50;12.98;;;4.72;;
30647;SDS011;17683;53.360;9.736;2023-09-30T00:20:16;16.20;;;4.75;;
30647;SDS011;17683;53.360;9.736;2023-09-30T00:22:42;12.20;;;4.45;;
30647;SDS011;17683;53.360;9.736;2023-09-30T00:25:08;12.30;;;3.70;;
30647;SDS011;17683;53.360;9.736;2023-09-30T00:27:35;27.73;;;6.20;;
30647;SDS011;17683;53.360;9.736;2023-09-30T00:30:01;14.65;;;5.07;;
30647;SDS011;17683;53.360;9.736;2023-09-30T00:32:28;17.58;;;4.90;;
30647;SDS011;17683;53.360;9.736;2023-09-30T00:34:54;15.00;;;4.03;;
30647;SDS011;17683;53.360;9.736;2023-09-30T00:37:20;14.95;;;5.28;;
30647;SDS011;17683;53.360;9.736;2023-09-30T00:39:46;13.85;;;4.40;;
30647;SDS011;17683;53.360;9.736;2023-09-30T00:42:11;15.32;;;5.95;;
30647;SDS011;17683;53.360;9.736;2023-09-30T00:44:37;18.92;;;4.65;;
30647;SDS011;17683;53.360;9.736;2023-09-30T00:47:03;16.55;;;5.68;;
30647;SDS011;17683;53.360;9.736;2023-09-30T00:49:30;16.52;;;5.13;;
30647;SDS011;17683;53.360;9.736;2023-09-30T00:51:57;18.13;;;4.95;;
30647;SDS011;17683;53.360;9.736;2023-09-30T00:54:24;14.10;;;5.55;;
30647;SDS011;17683;53.360;9.736;2023-09-30T00:56:52;15.45;;;4.50;;
30647;SDS011;17683;53.360;9.736;2023-09-30T00:59:25;17.75;;;5.38;;
30647;SDS011;17683;53.360;9.736;2023-09-30T01:01:51;18.88;;;5.47;;
30647;SDS011;17683;53.360;9.736;2023-09-30T01:04:22;19.80;;;4.18;;
30647;SDS011;17683;53.360;9.736;2023-09-30T01:06:49;11.45;;;4.57;;
30647;SDS011;17683;53.360;9.736;2023-09-30T01:09:14;17.98;;;5.15;;
30647;SDS011;17683;53.360;9.736;2023-09-30T01:11:40;13.10;;;4.28;;
30647;SDS011;17683;53.360;9.736;2023-09-30T01:14:23;18.55;;;4.72;;
30647;SDS011;17683;53.360;9.736;2023-09-30T01:16:54;17.80;;;5.43;;
30647;SDS011;17683;53.360;9.736;2023-09-30T01:19:21;18.15;;;5.25;;
30647;SDS011;17683;53.360;9.736;2023-09-30T01:21:51;11.27;;;5.38;;
30647;SDS011;17683;53.360;9.736;2023-09-30T01:24:24;15.98;;;5.65;;
30647;SDS011;17683;53.360;9.736;2023-09-30T01:26:50;14.20;;;4.43;;
30647;SDS011;17683;53.360;9.736;2023-09-30T01:29:16;15.02;;;5.18;;
30647;SDS011;17683;53.360;9.736;2023-09-30T01:31:42;18.63;;;5.18;;
30647;SDS011;17683;53.360;9.736;2023-09-30T01:34:08;17.85;;;5.60;;
30647;SDS011;17683;53.360;9.736;2023-09-30T01:36:35;17.02;;;4.60;;
30647;SDS011;17683;53.360;9.736;2023-09-30T01:39:01;16.02;;;4.72;;
30647;SDS011;17683;53.360;9.736;2023-09-30T01:41:28;14.10;;;3.80;;
30647;SDS011;17683;53.360;9.736;2023-09-30T01:43:53;10.43;;;4.88;;
30647;SDS011;17683;53.360;9.736;2023-09-30T01:46:19;12.43;;;4.93;;
30647;SDS011;17683;53.360;9.736;2023-09-30T01:48:45;19.33;;;5.18;;
30647;SDS011;17683;53.360;9.736;2023-09-30T01:51:10;14.98;;;4.65;;
30647;SDS011;17683;53.360;9.736;2023-09-30T01:53:36;15.95;;;5.43;;
30647;SDS011;17683;53.360;9.736;2023-09-30T01:56:02;18.25;;;5.38;;
30647;SDS011;17683;53.360;9.736;2023-09-30T01:58:27;16.58;;;4.50;;
30647;SDS011;17683;53.360;9.736;2023-09-30T02:00:53;15.63;;;4.78;;
30647;SDS011;17683;53.360;9.736;2023-09-30T02:03:19;16.70;;;5.28;;
30647;SDS011;17683;53.360;9.736;2023-09-30T02:05:45;16.92;;;4.88;;
30647;SDS011;17683;53.360;9.736;2023-09-30T02:08:11;17.08;;;4.78;;
30647;SDS011;17683;53.360;9.736;2023-09-30T02:10:38;17.70;;;6.00;;
30647;SDS011;17683;53.360;9.736;2023-09-30T02:13:04;9.57;;;4.90;;
30647;SDS011;17683;53.360;9.736;2023-09-30T02:15:31;20.98;;;6.07;;
30647;SDS011;17683;53.360;9.736;2023-09-30T02:17:57;19.98;;;5.95;;
30647;SDS011;17683;53.360;9.736;2023-09-30T02:20:23;18.73;;;6.45;;
30647;SDS011;17683;53.360;9.736;2023-09-30T02:22:51;13.60;;;5.07;;
30647;SDS011;17683;53.360;9.736;2023-09-30T02:25:17;19.05;;;5.85;;
30647;SDS011;17683;53.360;9.736;2023-09-30T02:27:43;14.85;;;5.40;;
30647;SDS011;17683;53.360;9.736;2023-09-30T02:30:10;12.82;;;5.43;;
30647;SDS011;17683;53.360;9.736;2023-09-30T02:32:41;22.05;;;5.95;;
30647;SDS011;17683;53.360;9.736;2023-09-30T02:35:07;17.92;;;5.03;;
30647;SDS011;17683;53.360;9.736;2023-09-30T02:37:37;12.73;;;5.00;;
30647;SDS011;17683;53.360;9.736;2023-09-30T02:40:03;16.27;;;5.13;;
30647;SDS011;17683;53.360;9.736;2023-09-30T02:42:33;15.00;;;5.53;;
30647;SDS011;17683;53.360;9.736;2023-09-30T02:45:00;16.25;;;5.85;;
30647;SDS011;17683;53.360;9.736;2023-09-30T02:47:28;16.98;;;5.07;;
30647;SDS011;17683;53.360;9.736;2023-09-30T02:49:57;17.77;;;5.47;;
30647;SDS011;17683;53.360;9.736;2023-09-30T02:52:24;17.95;;;5.53;;
30647;SDS011;17683;53.360;9.736;2023-09-30T02:54:49;18.73;;;5.78;;
30647;SDS011;17683;53.360;9.736;2023-09-30T02:57:15;18.20;;;6.38;;
30647;SDS011;17683;53.360;9.736;2023-09-30T02:59:41;19.95;;;6.55;;
30647;SDS011;17683;53.360;9.736;2023-09-30T03:02:07;16.85;;;5.63;;
30647;SDS011;17683;53.360;9.736;2023-09-30T03:04:32;20.35;;;6.10;;
30647;SDS011;17683;53.360;9.736;2023-09-30T03:06:58;16.42;;;5.90;;
30647;SDS011;17683;53.360;9.736;2023-09-30T03:09:25;18.77;;;5.75;;
30647;SDS011;17683;53.360;9.736;2023-09-30T03:11:51;17.88;;;5.28;;
30647;SDS011;17683;53.360;9.736;2023-09-30T03:14:16;12.98;;;4.80;;
30647;SDS011;17683;53.360;9.736;2023-09-30T03:16:43;14.18;;;5.50;;
30647;SDS011;17683;53.360;9.736;2023-09-30T03:19:09;15.60;;;5.35;;
30647;SDS011;17683;53.360;9.736;2023-09-30T03:21:36;17.23;;;5.47;;
30647;SDS011;17683;53.360;9.736;2023-09-30T03:24:03;21.45;;;6.25;;
30647;SDS011;17683;53.360;9.736;2023-09-30T03:26:30;19.98;;;5.70;;
30647;SDS011;17683;53.360;9.736;2023-09-30T03:28:56;20.63;;;4.95;;
30647;SDS011;17683;53.360;9.736;2023-09-30T03:31:22;17.20;;;5.43;;
30647;SDS011;17683;53.360;9.736;2023-09-30T03:33:49;16.38;;;6.10;;
30647;SDS011;17683;53.360;9.736;2023-09-30T03:36:16;18.17;;;5.38;;
30647;SDS011;17683;53.360;9.736;2023-09-30T03:38:43;13.13;;;4.95;;
30647;SDS011;17683;53.360;9.736;2023-09-30T03:41:09;19.60;;;5.55;;
30647;SDS011;17683;53.360;9.736;2023-09-30T03:43:38;16.92;;;6.35;;
30647;SDS011;17683;53.360;9.736;2023-09-30T03:46:06;16.23;;;5.20;;
30647;SDS011;17683;53.360;9.736;2023-09-30T03:48:32;17.98;;;5.65;;
30647;SDS011;17683;53.360;9.736;2023-09-30T03:51:13;10.20;;;4.55;;
30647;SDS011;17683;53.360;9.736;2023-09-30T03:53:45;14.65;;;5.50;;
30647;SDS011;17683;53.360;9.736;2023-09-30T03:56:11;14.05;;;5.80;;
30647;SDS011;17683;53.360;9.736;2023-09-30T03:58:38;15.45;;;4.78;;
30647;SDS011;17683;53.360;9.736;2023-09-30T04:01:11;24.23;;;6.13;;
30647;SDS011;17683;53.360;9.736;2023-09-30T04:03:38;15.70;;;5.50;;
30647;SDS011;17683;53.360;9.736;2023-09-30T04:06:08;17.45;;;6.18;;
30647;SDS011;17683;53.360;9.736;2023-09-30T04:08:34;18.42;;;5.85;;
30647;SDS011;17683;53.360;9.736;2023-09-30T04:11:00;14.90;;;5.45;;
30647;SDS011;17683;53.360;9.736;2023-09-30T04:13:28;14.63;;;5.78;;
30647;SDS011;17683;53.360;9.736;2023-09-30T04:15:54;16.33;;;5.45;;
30647;SDS011;17683;53.360;9.736;2023-09-30T04:18:23;24.27;;;5.85;;
30647;SDS011;17683;53.360;9.736;2023-09-30T04:20:51;15.60;;;5.80;;
30647;SDS011;17683;53.360;9.736;2023-09-30T04:23:17;16.52;;;5.40;;
30647;SDS011;17683;53.360;9.736;2023-09-30T04:25:45;17.63;;;5.95;;
30647;SDS011;17683;53.360;9.736;2023-09-30T04:28:12;17.20;;;6.35;;
30647;SDS011;17683;53.360;9.736;2023-09-30T04:30:39;18.20;;;5.35;;
30647;SDS011;17683;53.360;9.736;2023-09-30T04:33:05;18.48;;;5.07;;
30647;SDS011;17683;53.360;9.736;2023-09-30T04:35:31;14.00;;;5.47;;
30647;SDS011;17683;53.360;9.736;2023-09-30T04:37:56;20.98;;;5.63;;
30647;SDS011;17683;53.360;9.736;2023-09-30T04:40:31;11.43;;;4.97;;
30647;SDS011;17683;53.360;9.736;2023-09-30T04:42:58;13.80;;;5.80;;
30647;SDS011;17683;53.360;9.736;2023-09-30T04:45:25;16.55;;;5.72;;
30647;SDS011;17683;53.360;9.736;2023-09-30T04:47:54;16.40;;;5.80;;
30647;SDS011;17683;53.360;9.736;2023-09-30T04:50:23;12.75;;;5.00;;
30647;SDS011;17683;53.360;9.736;2023-09-30T04:52:49;16.17;;;6.05;;
30647;SDS011;17683;53.360;9.736;2023-09-30T04:55:16;23.38;;;5.38;;
30647;SDS011;17683;53.360;9.736;2023-09-30T04:57:43;16.88;;;5.10;;
30647;SDS011;17683;53.360;9.736;2023-09-30T05:00:13;13.80;;;5.55;;
30647;SDS011;17683;53.360;9.736;2023-09-30T05:02:40;16.63;;;5.32;;
30647;SDS011;17683;53.360;9.736;2023-09-30T05:05:06;15.80;;;5.22;;
30647;SDS011;17683;53.360;9.736;2023-09-30T05:07:32;13.45;;;5.63;;
30647;SDS011;17683;53.360;9.736;2023-09-30T05:09:58;16.67;;;5.75;;
30647;SDS011;17683;53.360;9.736;2023-09-30T05:12:24;18.02;;;5.57;;
30647;SDS011;17683;53.360;9.736;2023-09-30T05:14:50;16.45;;;5.93;;
30647;SDS011;17683;53.360;9.736;2023-09-30T05:17:17;16.58;;;5.53;;
30647;SDS011;17683;53.360;9.736;2023-09-30T05:19:43;16.92;;;5.35;;
30647;SDS011;17683;53.360;9.736;2023-09-30T05:22:09;15.02;;;5.47;;
30647;SDS011;17683;53.360;9.736;2023-09-30T05:24:35;14.77;;;5.63;;
30647;SDS011;17683;53.360;9.736;2023-09-30T05:27:01;15.90;;;5.57;;
30647;SDS011;17683;53.360;9.736;2023-09-30T05:29:27;14.05;;;5.57;;
30647;SDS011;17683;53.360;9.736;2023-09-30T05:31:53;17.45;;;5.90;;
30647;SDS011;17683;53.360;9.736;2023-09-30T05:34:19;20.55;;;5.03;;
30647;SDS011;17683;53.360;9.736;2023-09-30T05:36:45;18.50;;;5.57;;
30647;SDS011;17683;53.360;9.736;2023-09-30T05:39:10;15.55;;;5.47;;
30647;SDS011;17683;53.360;9.736;2023-09-30T05:41:37;21.33;;;6.90;;
30647;SDS011;17683;53.360;9.736;2023-09-30T05:44:03;23.75;;;7.32;;
30647;SDS011;17683;53.360;9.736;2023-09-30T05:46:30;18.65;;;6.25;;
30647;SDS011;17683;53.360;9.736;2023-09-30T05:48:56;17.42;;;5.97;;
30647;SDS011;17683;53.360;9.736;2023-09-30T05:51:22;14.88;;;4.97;;
30647;SDS011;17683;53.360;9.736;2023-09-30T05:53:47;15.25;;;6.80;;
30647;SDS011;17683;53.360;9.736;2023-09-30T05:56:13;15.32;;;6.25;;
30647;SDS011;17683;53.360;9.736;2023-09-30T05:58:40;14.90;;;5.78;;
30647;SDS011;17683;53.360;9.736;2023-09-30T06:01:07;17.88;;;7.45;;
30647;SDS011;17683;53.360;9.736;2023-09-30T06:03:36;14.52;;;5.75;;
30647;SDS011;17683;53.360;9.736;2023-09-30T06:06:14;10.65;;;4.70;;
30647;SDS011;17683;53.360;9.736;2023-09-30T06:08:41;15.88;;;5.95;;
30647;SDS011;17683;53.360;9.736;2023-09-30T06:11:17;18.27;;;6.00;;
30647;SDS011;17683;53.360;9.736;2023-09-30T06:13:44;17.33;;;5.70;;
30647;SDS011;17683;53.360;9.736;2023-09-30T06:16:11;20.00;;;5.72;;
30647;SDS011;17683;53.360;9.736;2023-09-30T06:18:37;19.98;;;6.43;;
30647;SDS011;17683;53.360;9.736;2023-09-30T06:21:03;12.82;;;5.85;;
30647;SDS011;17683;53.360;9.736;2023-09-30T06:23:30;11.65;;;5.10;;
30647;SDS011;17683;53.360;9.736;2023-09-30T06:25:56;16.40;;;4.93;;
30647;SDS011;17683;53.360;9.736;2023-09-30T06:28:22;23.77;;;6.13;;
30647;SDS011;17683;53.360;9.736;2023-09-30T06:30:54;16.10;;;5.90;;
30647;SDS011;17683;53.360;9.736;2023-09-30T06:33:20;16.85;;;5.93;;
30647;SDS011;17683;53.360;9.736;2023-09-30T06:35:46;16.73;;;6.38;;
30647;SDS011;17683;53.360;9.736;2023-09-30T06:38:20;19.95;;;6.07;;
30647;SDS011;17683;53.360;9.736;2023-09-30T06:40:47;12.05;;;5.55;;
30647;SDS011;17683;53.360;9.736;2023-09-30T06:43:15;14.27;;;6.30;;
30647;SDS011;17683;53.360;9.736;2023-09-30T06:45:44;21.67;;;5.75;;
30647;SDS011;17683;53.360;9.736;2023-09-30T06:48:11;13.90;;;5.85;;
30647;SDS011;17683;53.360;9.736;2023-09-30T06:50:48;19.92;;;6.80;;
30647;SDS011;17683;53.360;9.736;2023-09-30T06:53:17;15.48;;;5.32;;
30647;SDS011;17683;53.360;9.736;2023-09-30T06:55:44;23.17;;;6.30;;
30647;SDS011;17683;53.360;9.736;2023-09-30T06:58:10;21.23;;;6.65;;
30647;SDS011;17683;53.360;9.736;2023-09-30T07:00:43;22.58;;;6.53;;
30647;SDS011;17683;53.360;9.736;2023-09-30T07:03:09;19.75;;;5.57;;
30647;SDS011;17683;53.360;9.736;2023-09-30T07:05:36;19.80;;;6.70;;
30647;SDS011;17683;53.360;9.736;2023-09-30T07:08:05;17.33;;;5.55;;
30647;SDS011;17683;53.360;9.736;2023-09-30T07:10:30;13.32;;;4.93;;
30647;SDS011;17683;53.360;9.736;2023-09-30T07:12:56;15.00;;;5.50;;
30647;SDS011;17683;53.360;9.736;2023-09-30T07:15:22;15.30;;;5.40;;
30647;SDS011;17683;53.360;9.736;2023-09-30T07:17:48;19.52;;;5.25;;
30647;SDS011;17683;53.360;9.736;2023-09-30T07:20:14;22.20;;;5.97;;
30647;SDS011;17683;53.360;9.736;2023-09-30T07:22:40;18.48;;;5.13;;
30647;SDS011;17683;53.360;9.736;2023-09-30T07:25:06;19.02;;;6.38;;
30647;SDS011;17683;53.360;9.736;2023-09-30T07:27:32;16.90;;;5.63;;
30647;SDS011;17683;53.360;9.736;2023-09-30T07:29:58;21.38;;;5.82;;
30647;SDS011;17683;53.360;9.736;2023-09-30T07:32:24;20.77;;;5.82;;
30647;SDS011;17683;53.360;9.736;2023-09-30T07:34:51;14.55;;;6.25;;
30647;SDS011;17683;53.360;9.736;2023-09-30T07:37:17;13.68;;;5.65;;
30647;SDS011;17683;53.360;9.736;2023-09-30T07:39:44;22.15;;;6.53;;
30647;SDS011;17683;53.360;9.736;2023-09-30T07:42:10;16.42;;;5.10;;
30647;SDS011;17683;53.360;9.736;2023-09-30T07:44:36;16.63;;;5.13;;
30647;SDS011;17683;53.360;9.736;2023-09-30T07:47:02;18.77;;;5.93;;
30647;SDS011;17683;53.360;9.736;2023-09-30T07:49:29;15.68;;;5.85;;
30647;SDS011;17683;53.360;9.736;2023-09-30T07:51:55;12.80;;;5.07;;
30647;SDS011;17683;53.360;9.736;2023-09-30T07:54:21;16.92;;;5.93;;
30647;SDS011;17683;53.360;9.736;2023-09-30T07:56:46;14.73;;;5.20;;
30647;SDS011;17683;53.360;9.736;2023-09-30T07:59:12;20.90;;;5.28;;
30647;SDS011;17683;53.360;9.736;2023-09-30T08:01:39;11.27;;;4.65;;
30647;SDS011;17683;53.360;9.736;2023-09-30T08:04:05;18.80;;;6.28;;
30647;SDS011;17683;53.360;9.736;2023-09-30T08:06:31;19.73;;;5.35;;
30647;SDS011;17683;53.360;9.736;2023-09-30T08:08:58;14.75;;;5.55;;
30647;SDS011;17683;53.360;9.736;2023-09-30T08:11:24;22.10;;;5.88;;
30647;SDS011;17683;53.360;9.736;2023-09-30T08:13:55;13.75;;;4.78;;
30647;SDS011;17683;53.360;9.736;2023-09-30T08:16:21;14.23;;;5.07;;
30647;SDS011;17683;53.360;9.736;2023-09-30T08:18:47;12.80;;;4.90;;
30647;SDS011;17683;53.360;9.736;2023-09-30T08:21:13;12.90;;;4.03;;
30647;SDS011;17683;53.360;9.736;2023-09-30T08:23:39;16.17;;;5.07;;
30647;SDS011;17683;53.360;9.736;2023-09-30T08:26:05;13.45;;;4.32;;
30647;SDS011;17683;53.360;9.736;2023-09-30T08:28:31;19.05;;;5.50;;
30647;SDS011;17683;53.360;9.736;2023-09-30T08:31:04;21.10;;;4.90;;
30647;SDS011;17683;53.360;9.736;2023-09-30T08:33:30;17.13;;;4.35;;
30647;SDS011;17683;53.360;9.736;2023-09-30T08:36:01;15.88;;;3.88;;
30647;SDS011;17683;53.360;9.736;2023-09-30T08:38:32;15.98;;;4.45;;
30647;SDS011;17683;53.360;9.736;2023-09-30T08:40:58;14.77;;;3.88;;
30647;SDS011;17683;53.360;9.736;2023-09-30T08:43:25;19.83;;;4.25;;
30647;SDS011;17683;53.360;9.736;2023-09-30T08:45:55;15.88;;;4.70;;
30647;SDS011;17683;53.360;9.736;2023-09-30T08:48:22;15.35;;;3.72;;
30647;SDS011;17683;53.360;9.736;2023-09-30T08:50:49;19.42;;;4.38;;
30647;SDS011;17683;53.360;9.736;2023-09-30T08:53:17;13.15;;;3.90;;
30647;SDS011;17683;53.360;9.736;2023-09-30T08:55:44;15.80;;;3.88;;
30647;SDS011;17683;53.360;9.736;2023-09-30T08:58:12;15.70;;;4.32;;
30647;SDS011;17683;53.360;9.736;2023-09-30T09:00:38;15.52;;;4.53;;
30647;SDS011;17683;53.360;9.736;2023-09-30T09:03:08;18.95;;;4.70;;
30647;SDS011;17683;53.360;9.736;2023-09-30T09:05:34;13.75;;;4.35;;
30647;SDS011;17683;53.360;9.736;2023-09-30T09:07:59;18.05;;;4.20;;
30647;SDS011;17683;53.360;9.736;2023-09-30T09:10:26;20.55;;;5.03;;
30647;SDS011;17683;53.360;9.736;2023-09-30T09:12:55;19.75;;;5.13;;
30647;SDS011;17683;53.360;9.736;2023-09-30T09:15:23;16.30;;;4.15;;
30647;SDS011;17683;53.360;9.736;2023-09-30T09:17:50;14.35;;;3.75;;
30647;SDS011;17683;53.360;9.736;2023-09-30T09:20:18;11.43;;;3.95;;
30647;SDS011;17683;53.360;9.736;2023-09-30T09:22:46;10.82;;;3.50;;
30647;SDS011;17683;53.360;9.736;2023-09-30T09:25:16;19.58;;;3.50;;
30647;SDS011;17683;53.360;9.736;2023-09-30T09:27:42;13.98;;;3.80;;
30647;SDS011;17683;53.360;9.736;2023-09-30T09:33:04;14.10;;;4.00;;
30647;SDS011;17683;53.360;9.736;2023-09-30T09:35:32;20.15;;;4.63;;
30647;SDS011;17683;53.360;9.736;2023-09-30T09:38:02;18.30;;;4.10;;
30647;SDS011;17683;53.360;9.736;2023-09-30T09:40:34;12.48;;;3.22;;
30647;SDS011;17683;53.360;9.736;2023-09-30T09:43:01;11.00;;;4.25;;
30647;SDS011;17683;53.360;9.736;2023-09-30T09:45:35;15.10;;;3.28;;
30647;SDS011;17683;53.360;9.736;2023-09-30T09:48:03;15.13;;;3.60;;
30647;SDS011;17683;53.360;9.736;2023-09-30T09:50:29;13.55;;;4.38;;
30647;SDS011;17683;53.360;9.736;2023-09-30T09:52:58;13.48;;;3.85;;
30647;SDS011;17683;53.360;9.736;2023-09-30T09:55:25;12.43;;;3.45;;
30647;SDS011;17683;53.360;9.736;2023-09-30T09:57:52;11.43;;;3.65;;
30647;SDS011;17683;53.360;9.736;2023-09-30T10:00:20;17.45;;;3.83;;
30647;SDS011;17683;53.360;9.736;2023-09-30T10:02:49;12.43;;;3.40;;
30647;SDS011;17683;53.360;9.736;2023-09-30T10:05:15;10.00;;;3.25;;
30647;SDS011;17683;53.360;9.736;2023-09-30T10:10:20;13.40;;;3.63;;
30647;SDS011;17683;53.360;9.736;2023-09-30T10:12:48;17.63;;;4.03;;
30647;SDS011;17683;53.360;9.736;2023-09-30T10:20:35;11.50;;;3.42;;
30647;SDS011;17683;53.360;9.736;2023-09-30T10:23:18;12.25;;;3.10;;
30647;SDS011;17683;53.360;9.736;2023-09-30T10:25:47;11.75;;;3.35;;
30647;SDS011;17683;53.360;9.736;2023-09-30T10:39:06;10.32;;;3.53;;
30647;SDS011;17683;53.360;9.736;2023-09-30T10:46:55;11.40;;;3.58;;
30647;SDS011;17683;53.360;9.736;2023-09-30T10:51:49;16.95;;;3.22;;
30647;SDS011;17683;53.360;9.736;2023-09-30T10:54:21;11.77;;;2.65;;
30647;SDS011;17683;53.360;9.736;2023-09-30T10:56:50;13.57;;;3.20;;
30647;SDS011;17683;53.360;9.736;2023-09-30T10:59:18;11.85;;;3.13;;
30647;SDS011;17683;53.360;9.736;2023-09-30T11:01:44;16.83;;;4.00;;
30647;SDS011;17683;53.360;9.736;2023-09-30T11:04:11;13.50;;;2.80;;
30647;SDS011;17683;53.360;9.736;2023-09-30T11:06:39;11.10;;;2.67;;
30647;SDS011;17683;53.360;9.736;2023-09-30T11:09:06;9.45;;;2.75;;
30647;SDS011;17683;53.360;9.736;2023-09-30T11:11:46;11.68;;;2.78;;
30647;SDS011;17683;53.360;9.736;2023-09-30T11:14:19;12.68;;;2.40;;
30647;SDS011;17683;53.360;9.736;2023-09-30T11:16:53;16.23;;;3.45;;
30647;SDS011;17683;53.360;9.736;2023-09-30T11:19:20;17.70;;;3.05;;
30647;SDS011;17683;53.360;9.736;2023-09-30T11:21:51;16.35;;;3.03;;
30647;SDS011;17683;53.360;9.736;2023-09-30T11:24:18;11.98;;;2.83;;
30647;SDS011;17683;53.360;9.736;2023-09-30T11:26:44;7.82;;;2.30;;
30647;SDS011;17683;53.360;9.736;2023-09-30T11:31:44;12.50;;;2.88;;
30647;SDS011;17683;53.360;9.736;2023-09-30T11:34:11;9.95;;;3.05;;
30647;SDS011;17683;53.360;9.736;2023-09-30T11:36:41;7.90;;;2.10;;
30647;SDS011;17683;53.360;9.736;2023-09-30T11:39:22;9.40;;;2.42;;
30647;SDS011;17683;53.360;9.736;2023-09-30T11:41:51;12.00;;;2.70;;
30647;SDS011;17683;53.360;9.736;2023-09-30T11:44:18;9.73;;;2.42;;
30647;SDS011;17683;53.360;9.736;2023-09-30T11:46:50;11.02;;;2.25;;
30647;SDS011;17683;53.360;9.736;2023-09-30T11:52:00;11.57;;;2.60;;
30647;SDS011;17683;53.360;9.736;2023-09-30T11:54:33;13.32;;;3.20;;
30647;SDS011;17683;53.360;9.736;2023-09-30T11:57:05;7.85;;;2.45;;
30647;SDS011;17683;53.360;9.736;2023-09-30T11:59:34;10.75;;;2.85;;
30647;SDS011;17683;53.360;9.736;2023-09-30T12:02:04;9.10;;;2.55;;
30647;SDS011;17683;53.360;9.736;2023-09-30T12:04:34;8.98;;;2.50;;
30647;SDS011;17683;53.360;9.736;2023-09-30T12:07:00;11.45;;;2.60;;
30647;SDS011;17683;53.360;9.736;2023-09-30T12:09:26;9.82;;;2.08;;
30647;SDS011;17683;53.360;9.736;2023-09-30T12:11:52;9.18;;;2.35;;
30647;SDS011;17683;53.360;9.736;2023-09-30T12:14:19;5.45;;;2.50;;
30647;SDS011;17683;53.360;9.736;2023-09-30T12:16:45;9.80;;;2.30;;
30647;SDS011;17683;53.360;9.736;2023-09-30T12:19:16;5.28;;;2.33;;
30647;SDS011;17683;53.360;9.736;2023-09-30T12:21:43;9.80;;;2.38;;
30647;SDS011;17683;53.360;9.736;2023-09-30T12:24:12;8.02;;;2.40;;
30647;SDS011;17683;53.360;9.736;2023-09-30T12:26:42;6.45;;;1.75;;
30647;SDS011;17683;53.360;9.736;2023-09-30T12:29:18;7.37;;;1.70;;
30647;SDS011;17683;53.360;9.736;2023-09-30T12:31:45;8.13;;;2.42;;
30647;SDS011;17683;53.360;9.736;2023-09-30T12:34:11;8.38;;;2.05;;
30647;SDS011;17683;53.360;9.736;2023-09-30T12:36:37;9.23;;;1.63;;
30647;SDS011;17683;53.360;9.736;2023-09-30T12:39:04;10.82;;;2.55;;
30647;SDS011;17683;53.360;9.736;2023-09-30T12:41:36;14.68;;;2.63;;
30647;SDS011;17683;53.360;9.736;2023-09-30T12:44:02;8.25;;;2.10;;
30647;SDS011;17683;53.360;9.736;2023-09-30T12:46:28;3.67;;;1.58;;
30647;SDS011;17683;53.360;9.736;2023-09-30T12:48:54;10.43;;;2.40;;
30647;SDS011;17683;53.360;9.736;2023-09-30T12:51:20;7.32;;;1.98;;
30647;SDS011;17683;53.360;9.736;2023-09-30T12:53:45;7.68;;;1.90;;
30647;SDS011;17683;53.360;9.736;2023-09-30T12:56:11;7.95;;;2.10;;
30647;SDS011;17683;53.360;9.736;2023-09-30T12:58:38;7.03;;;2.30;;
30647;SDS011;17683;53.360;9.736;2023-09-30T13:01:04;8.77;;;1.42;;
30647;SDS011;17683;53.360;9.736;2023-09-30T13:03:31;5.15;;;2.22;;
30647;SDS011;17683;53.360;9.736;2023-09-30T13:05:57;8.60;;;2.15;;
30647;SDS011;17683;53.360;9.736;2023-09-30T13:08:23;6.03;;;1.30;;
30647;SDS011;17683;53.360;9.736;2023-09-30T13:10:48;8.35;;;1.85;;
30647;SDS011;17683;53.360;9.736;2023-09-30T13:13:15;5.75;;;1.90;;
30647;SDS011;17683;53.360;9.736;2023-09-30T13:15:41;6.65;;;2.33;;
30647;SDS011;17683;53.360;9.736;2023-09-30T13:18:07;9.82;;;1.90;;
30647;SDS011;17683;53.360;9.736;2023-09-30T13:20:33;4.88;;;1.70;;
30647;SDS011;17683;53.360;9.736;2023-09-30T13:22:59;9.15;;;1.80;;
30647;SDS011;17683;53.360;9.736;2023-09-30T13:25:25;5.25;;;1.80;;
30647;SDS011;17683;53.360;9.736;2023-09-30T13:27:51;6.97;;;1.60;;
30647;SDS011;17683;53.360;9.736;2023-09-30T13:30:17;4.07;;;1.50;;
30647;SDS011;17683;53.360;9.736;2023-09-30T13:32:43;4.50;;;1.10;;
30647;SDS011;17683;53.360;9.736;2023-09-30T13:35:09;7.68;;;2.45;;
30647;SDS011;17683;53.360;9.736;2023-09-30T13:37:35;7.57;;;2.35;;
30647;SDS011;17683;53.360;9.736;2023-09-30T13:40:02;7.20;;;1.42;;
30647;SDS011;17683;53.360;9.736;2023-09-30T13:42:36;4.95;;;1.85;;
30647;SDS011;17683;53.360;9.736;2023-09-30T13:45:02;7.90;;;2.50;;
30647;SDS011;17683;53.360;9.736;2023-09-30T13:47:28;6.93;;;1.80;;
30647;SDS011;17683;53.360;9.736;2023-09-30T13:49:54;9.63;;;1.90;;
30647;SDS011;17683;53.360;9.736;2023-09-30T13:52:20;6.72;;;1.95;;
30647;SDS011;17683;53.360;9.736;2023-09-30T13:54:46;9.55;;;1.75;;
30647;SDS011;17683;53.360;9.736;2023-09-30T13:57:12;8.68;;;2.03;;
30647;SDS011;17683;53.360;9.736;2023-09-30T13:59:39;5.25;;;1.88;;
30647;SDS011;17683;53.360;9.736;2023-09-30T14:02:05;8.38;;;1.92;;
30647;SDS011;17683;53.360;9.736;2023-09-30T14:04:31;6.25;;;1.98;;
30647;SDS011;17683;53.360;9.736;2023-09-30T14:06:58;5.97;;;1.88;;
30647;SDS011;17683;53.360;9.736;2023-09-30T14:09:27;12.38;;;2.35;;
30647;SDS011;17683;53.360;9.736;2023-09-30T14:11:53;5.47;;;1.55;;
30647;SDS011;17683;53.360;9.736;2023-09-30T14:14:19;5.43;;;1.77;;
30647;SDS011;17683;53.360;9.736;2023-09-30T14:16:44;5.57;;;2.00;;
30647;SDS011;17683;53.360;9.736;2023-09-30T14:19:10;6.53;;;1.63;;
30647;SDS011;17683;53.360;9.736;2023-09-30T14:21:38;5.53;;;1.60;;
30647;SDS011;17683;53.360;9.736;2023-09-30T14:24:05;5.68;;;1.75;;
30647;SDS011;17683;53.360;9.736;2023-09-30T14:26:31;9.02;;;2.40;;
30647;SDS011;17683;53.360;9.736;2023-09-30T14:28:57;6.97;;;1.77;;
30647;SDS011;17683;53.360;9.736;2023-09-30T14:31:23;6.47;;;1.88;;
30647;SDS011;17683;53.360;9.736;2023-09-30T14:33:48;6.07;;;1.73;;
30647;SDS011;17683;53.360;9.736;2023-09-30T14:36:15;6.20;;;1.27;;
30647;SDS011;17683;53.360;9.736;2023-09-30T14:38:43;9.15;;;1.70;;
30647;SDS011;17683;53.360;9.736;2023-09-30T14:41:10;4.82;;;1.27;;
30647;SDS011;17683;53.360;9.736;2023-09-30T14:43:37;10.40;;;1.98;;
30647;SDS011;17683;53.360;9.736;2023-09-30T14:46:03;7.82;;;2.00;;
30647;SDS011;17683;53.360;9.736;2023-09-30T14:48:29;7.32;;;1.73;;
30647;SDS011;17683;53.360;9.736;2023-09-30T14:50:55;5.88;;;1.80;;
30647;SDS011;17683;53.360;9.736;2023-09-30T14:53:22;7.15;;;1.67;;
30647;SDS011;17683;53.360;9.736;2023-09-30T14:55:48;5.35;;;1.65;;
30647;SDS011;17683;53.360;9.736;2023-09-30T14:58:14;9.82;;;2.75;;
30647;SDS011;17683;53.360;9.736;2023-09-30T15:00:39;6.40;;;1.70;;
30647;SDS011;17683;53.360;9.736;2023-09-30T15:03:05;8.30;;;2.10;;
30647;SDS011;17683;53.360;9.736;2023-09-30T15:05:34;9.18;;;1.70;;
30647;SDS011;17683;53.360;9.736;2023-09-30T15:08:00;4.65;;;1.45;;
30647;SDS011;17683;53.360;9.736;2023-09-30T15:10:29;5.55;;;1.70;;
30647;SDS011;17683;53.360;9.736;2023-09-30T15:12:55;8.43;;;1.80;;